JST495 YBCG-YWLM
Flight info
| Callsign | JST495 |
|---|---|
| Flight time | N/A |
| Altitude | 34000 |
| Route | GOMOL Q16 APAGI H91 SANAD/N0352F190 V779 LAXUM DCT WLM |
| Aircraft | A320/M-SDE3FGHIRWY/LB1 |
Departure
| Time | N/A |
|---|---|
| Airport | Gold Coast Airport (YBCG) |
Arrival
| Time | 2026-04-26 02:37 |
|---|---|
| Airport | Newcastle Airport (YWLM) |
| Time | Latitude | Longitude | Altitude | Speed | Heading |
|---|---|---|---|---|---|
| 2026-04-26 02:08 | -30.49022 | 151.86085 | 34265 ft | 447 kts | 203° |
| 2026-04-26 02:09 | -30.54735 | 151.83257 | 34272 ft | 447 kts | 203° |
| 2026-04-26 02:09 | -30.60462 | 151.80408 | 34270 ft | 448 kts | 203° |
| 2026-04-26 02:10 | -30.66190 | 151.77558 | 34285 ft | 448 kts | 203° |
| 2026-04-26 02:10 | -30.71926 | 151.74705 | 34276 ft | 449 kts | 203° |
| 2026-04-26 02:11 | -30.77670 | 151.71843 | 34285 ft | 449 kts | 203° |
| 2026-04-26 02:11 | -30.83420 | 151.68976 | 34282 ft | 450 kts | 203° |
| 2026-04-26 02:12 | -30.89134 | 151.66116 | 34281 ft | 450 kts | 203° |
| 2026-04-26 02:12 | -30.94891 | 151.63239 | 34284 ft | 451 kts | 202° |
| 2026-04-26 02:13 | -31.00635 | 151.60369 | 33960 ft | 443 kts | 203° |
| 2026-04-26 02:13 | -31.03442 | 151.58963 | 33408 ft | 436 kts | 203° |
| 2026-04-26 02:13 | -31.06215 | 151.57570 | 32907 ft | 430 kts | 203° |
| 2026-04-26 02:13 | -31.08947 | 151.56194 | 32406 ft | 425 kts | 203° |
| 2026-04-26 02:14 | -31.11649 | 151.54836 | 31902 ft | 421 kts | 203° |
| 2026-04-26 02:14 | -31.14324 | 151.53492 | 31428 ft | 416 kts | 203° |
| 2026-04-26 02:14 | -31.16969 | 151.52160 | 30941 ft | 412 kts | 203° |
| 2026-04-26 02:14 | -31.19589 | 151.50843 | 30466 ft | 408 kts | 203° |
| 2026-04-26 02:15 | -31.22185 | 151.49537 | 29952 ft | 404 kts | 203° |
| 2026-04-26 02:15 | -31.24751 | 151.48248 | 29492 ft | 399 kts | 202° |
| 2026-04-26 02:15 | -31.27283 | 151.46975 | 29056 ft | 394 kts | 202° |
| 2026-04-26 02:15 | -31.29786 | 151.45715 | 28625 ft | 389 kts | 202° |
| 2026-04-26 02:16 | -31.32260 | 151.44469 | 28193 ft | 386 kts | 202° |
| 2026-04-26 02:16 | -31.34715 | 151.43233 | 27785 ft | 382 kts | 200° |
| 2026-04-26 02:16 | -31.37240 | 151.42332 | 27387 ft | 378 kts | 189° |
| 2026-04-26 02:16 | -31.39837 | 151.42039 | 26980 ft | 374 kts | 178° |
| 2026-04-26 02:17 | -31.42409 | 151.42343 | 26578 ft | 370 kts | 167° |
| 2026-04-26 02:17 | -31.44876 | 151.43046 | 26188 ft | 368 kts | 165° |
| 2026-04-26 02:17 | -31.47392 | 151.43778 | 25775 ft | 367 kts | 164° |
| 2026-04-26 02:17 | -31.49829 | 151.44481 | 25378 ft | 365 kts | 165° |
| 2026-04-26 02:18 | -31.52293 | 151.45193 | 24959 ft | 364 kts | 165° |
| 2026-04-26 02:18 | -31.54752 | 151.45902 | 24547 ft | 364 kts | 164° |
| 2026-04-26 02:18 | -31.57209 | 151.46613 | 24127 ft | 363 kts | 164° |
| 2026-04-26 02:18 | -31.59653 | 151.47322 | 23653 ft | 362 kts | 164° |
| 2026-04-26 02:19 | -31.62096 | 151.48031 | 23191 ft | 360 kts | 164° |
| 2026-04-26 02:19 | -31.64512 | 151.48733 | 22757 ft | 357 kts | 164° |
| 2026-04-26 02:19 | -31.66917 | 151.49435 | 22318 ft | 354 kts | 163° |
| 2026-04-26 02:19 | -31.69302 | 151.50131 | 21879 ft | 352 kts | 163° |
| 2026-04-26 02:20 | -31.71670 | 151.50819 | 21444 ft | 349 kts | 164° |
| 2026-04-26 02:20 | -31.74024 | 151.51501 | 21000 ft | 347 kts | 164° |
| 2026-04-26 02:20 | -31.76366 | 151.52179 | 20570 ft | 346 kts | 164° |
| 2026-04-26 02:20 | -31.78694 | 151.52857 | 20133 ft | 344 kts | 163° |
| 2026-04-26 02:21 | -31.81012 | 151.53537 | 19698 ft | 343 kts | 163° |
| 2026-04-26 02:21 | -31.83322 | 151.54226 | 19249 ft | 342 kts | 163° |
| 2026-04-26 02:21 | -31.85624 | 151.54920 | 18815 ft | 341 kts | 164° |
| 2026-04-26 02:21 | -31.87919 | 151.55610 | 18359 ft | 340 kts | 163° |
| 2026-04-26 02:22 | -31.90204 | 151.56296 | 17901 ft | 338 kts | 164° |
| 2026-04-26 02:22 | -31.92442 | 151.56967 | 17478 ft | 335 kts | 163° |
| 2026-04-26 02:22 | -31.94693 | 151.57643 | 17053 ft | 333 kts | 164° |
| 2026-04-26 02:22 | -31.96933 | 151.58314 | 16624 ft | 331 kts | 163° |
| 2026-04-26 02:23 | -31.99161 | 151.58981 | 16201 ft | 329 kts | 163° |
| 2026-04-26 02:23 | -32.01378 | 151.59644 | 15777 ft | 328 kts | 163° |
| 2026-04-26 02:23 | -32.03583 | 151.60305 | 15356 ft | 326 kts | 165° |
| 2026-04-26 02:23 | -32.05778 | 151.60963 | 14939 ft | 325 kts | 164° |
| 2026-04-26 02:24 | -32.07971 | 151.61622 | 14515 ft | 325 kts | 164° |
| 2026-04-26 02:24 | -32.10162 | 151.62280 | 14093 ft | 325 kts | 163° |
| 2026-04-26 02:24 | -32.12349 | 151.62936 | 13647 ft | 324 kts | 163° |
| 2026-04-26 02:24 | -32.14522 | 151.63590 | 13226 ft | 321 kts | 164° |
| 2026-04-26 02:25 | -32.16682 | 151.64242 | 12831 ft | 320 kts | 164° |
| 2026-04-26 02:25 | -32.18831 | 151.64890 | 12427 ft | 318 kts | 165° |
| 2026-04-26 02:25 | -32.20953 | 151.65529 | 12194 ft | 311 kts | 164° |
| 2026-04-26 02:25 | -32.23039 | 151.66156 | 11851 ft | 308 kts | 164° |
| 2026-04-26 02:26 | -32.25110 | 151.66782 | 11489 ft | 306 kts | 163° |
| 2026-04-26 02:26 | -32.27167 | 151.67406 | 11165 ft | 303 kts | 163° |
| 2026-04-26 02:26 | -32.29177 | 151.68012 | 10981 ft | 295 kts | 164° |
| 2026-04-26 02:26 | -32.31122 | 151.68599 | 10700 ft | 291 kts | 164° |
| 2026-04-26 02:27 | -32.33099 | 151.69103 | 10381 ft | 291 kts | 171° |
| 2026-04-26 02:27 | -32.35123 | 151.69201 | 10048 ft | 291 kts | 177° |
| 2026-04-26 02:27 | -32.37139 | 151.69250 | 9668 ft | 290 kts | 176° |
| 2026-04-26 02:27 | -32.39152 | 151.69307 | 9321 ft | 288 kts | 177° |
| 2026-04-26 02:28 | -32.41143 | 151.69363 | 8813 ft | 284 kts | 176° |
| 2026-04-26 02:28 | -32.43120 | 151.69417 | 8176 ft | 283 kts | 177° |
| 2026-04-26 02:28 | -32.45086 | 151.69472 | 7582 ft | 281 kts | 176° |
| 2026-04-26 02:28 | -32.47036 | 151.69527 | 6978 ft | 279 kts | 176° |
| 2026-04-26 02:29 | -32.48976 | 151.69581 | 6362 ft | 278 kts | 177° |
| 2026-04-26 02:29 | -32.50903 | 151.69632 | 5771 ft | 276 kts | 176° |
| 2026-04-26 02:29 | -32.52151 | 151.69663 | 5643 ft | 264 kts | 176° |
| 2026-04-26 02:29 | -32.53922 | 151.69707 | 5507 ft | 245 kts | 177° |
| 2026-04-26 02:30 | -32.56102 | 151.69761 | 5258 ft | 226 kts | 176° |
| 2026-04-26 02:30 | -32.57661 | 151.69804 | 4883 ft | 222 kts | 176° |
| 2026-04-26 02:30 | -32.58671 | 151.69898 | 4629 ft | 218 kts | 168° |
| 2026-04-26 02:30 | -32.60121 | 151.70389 | 4114 ft | 219 kts | 157° |
| 2026-04-26 02:31 | -32.61570 | 151.71037 | 3489 ft | 227 kts | 156° |
| 2026-04-26 02:31 | -32.63577 | 151.71668 | 3042 ft | 220 kts | 177° |
| 2026-04-26 02:31 | -32.64572 | 151.71517 | 3073 ft | 210 kts | 195° |
| 2026-04-26 02:31 | -32.65824 | 151.70793 | 3067 ft | 195 kts | 216° |
| 2026-04-26 02:32 | -32.66900 | 151.69875 | 2912 ft | 184 kts | 201° |
| 2026-04-26 02:32 | -32.68071 | 151.69525 | 2835 ft | 167 kts | 179° |
| 2026-04-26 02:32 | -32.69163 | 151.69707 | 2731 ft | 153 kts | 156° |
| 2026-04-26 02:32 | -32.70058 | 151.70291 | 2583 ft | 144 kts | 136° |
| 2026-04-26 02:33 | -32.70720 | 151.71128 | 2435 ft | 139 kts | 127° |
| 2026-04-26 02:33 | -32.71349 | 151.72001 | 2264 ft | 139 kts | 128° |
| 2026-04-26 02:33 | -32.71977 | 151.72874 | 2091 ft | 138 kts | 128° |
| 2026-04-26 02:33 | -32.72604 | 151.73746 | 1897 ft | 139 kts | 128° |
| 2026-04-26 02:34 | -32.73221 | 151.74604 | 1740 ft | 135 kts | 127° |
| 2026-04-26 02:34 | -32.73829 | 151.75452 | 1556 ft | 135 kts | 129° |
| 2026-04-26 02:34 | -32.74438 | 151.76300 | 1375 ft | 135 kts | 128° |
| 2026-04-26 02:34 | -32.75049 | 151.77151 | 1192 ft | 134 kts | 127° |
| 2026-04-26 02:35 | -32.75650 | 151.77988 | 1022 ft | 132 kts | 128° |
| 2026-04-26 02:35 | -32.76245 | 151.78817 | 834 ft | 131 kts | 129° |
| 2026-04-26 02:35 | -32.76835 | 151.79647 | 648 ft | 131 kts | 128° |
| 2026-04-26 02:35 | -32.77418 | 151.80476 | 438 ft | 131 kts | 130° |
| 2026-04-26 02:36 | -32.78017 | 151.81289 | 304 ft | 131 kts | 133° |
| 2026-04-26 02:36 | -32.78600 | 151.82107 | 112 ft | 129 kts | 130° |
| 2026-04-26 02:36 | -32.79155 | 151.82877 | 33 ft | 104 kts | 130° |
| 2026-04-26 02:36 | -32.79514 | 151.83375 | 29 ft | 55 kts | 130° |
| 2026-04-26 02:37 | -32.79673 | 151.83597 | 29 ft | 25 kts | 130° |
| 2026-04-26 02:37 | -32.79784 | 151.83752 | 32 ft | 25 kts | 130° |
| 2026-04-26 02:37 | -32.79909 | 151.83853 | 32 ft | 21 kts | 179° |
| 2026-04-26 02:37 | -32.80066 | 151.83829 | 31 ft | 25 kts | 188° |
| 2026-04-26 02:38 | -32.80198 | 151.83870 | 30 ft | 21 kts | 135° |
| 2026-04-26 02:38 | -32.80295 | 151.83998 | 30 ft | 20 kts | 130° |
| 2026-04-26 02:38 | -32.80361 | 151.84060 | 28 ft | 9 kts | 208° |
| 2026-04-26 02:38 | -32.80370 | 151.84039 | 28 ft | 1 kts | 250° |
| 2026-04-26 02:39 | -32.80373 | 151.84031 | 29 ft | 0 kts | 252° |
| 2026-04-26 02:39 | -32.80373 | 151.84029 | 29 ft | 0 kts | 252° |